Time;durP1;ratioP1;P1;durP2;ratioP2;P2;SDS_P1;SDS_P2;PMS_P1;PMS_P2;Temp;Humidity;BMP_temperature;BMP_pressure;BME280_temperature;BME280_humidity;BME280_pressure;Samples;Min_cycle;Max_cycle;Signal;HPM_P1;HPM_P2
2024/01/31 00:00:19;;;;;;;2.30;0.30;;;5.50;99.00;;;;;;5046749;28;20439;-69
2024/01/31 00:02:45;;;;;;;3.03;0.73;;;5.50;99.00;;;;;;5052050;28;20082;-69
2024/01/31 00:05:13;;;;;;;1.25;0.52;;;5.40;98.50;;;;;;5050401;28;20117;-69
2024/01/31 00:07:39;;;;;;;1.42;0.68;;;5.40;98.30;;;;;;5045670;28;20021;-69
2024/01/31 00:10:04;;;;;;;0.65;0.50;;;5.30;98.20;;;;;;5045253;28;20037;-70
2024/01/31 00:12:30;;;;;;;4.53;1.17;;;5.30;98.10;;;;;;5043487;28;20132;-69
2024/01/31 00:14:55;;;;;;;0.30;0.30;;;5.30;97.80;;;;;;5048890;28;20108;-69
2024/01/31 00:17:21;;;;;;;1.65;0.40;;;5.20;97.90;;;;;;5044188;28;20091;-70
2024/01/31 00:19:46;;;;;;;0.30;0.30;;;5.20;98.00;;;;;;5052136;28;20140;-71
2024/01/31 00:22:12;;;;;;;0.55;0.35;;;5.20;97.90;;;;;;5042662;28;20082;-69
2024/01/31 00:24:37;;;;;;;2.40;0.50;;;5.10;97.80;;;;;;5041172;28;20064;-70
2024/01/31 00:27:03;;;;;;;3.78;0.52;;;5.10;97.60;;;;;;5051679;28;20247;-70
2024/01/31 00:29:28;;;;;;;0.28;0.28;;;5.10;97.60;;;;;;5048692;28;20470;-67
2024/01/31 00:31:54;;;;;;;1.50;0.77;;;5.00;97.50;;;;;;5043458;28;20124;-67
2024/01/31 00:34:19;;;;;;;0.77;0.50;;;5.00;97.20;;;;;;5036916;28;20060;-67
2024/01/31 00:36:45;;;;;;;0.30;0.30;;;5.00;97.40;;;;;;5045399;28;20089;-67
2024/01/31 00:39:10;;;;;;;0.30;0.30;;;5.00;97.50;;;;;;5044917;28;20442;-67
2024/01/31 00:41:36;;;;;;;2.47;0.63;;;5.00;97.50;;;;;;5045165;28;20056;-67
2024/01/31 00:44:01;;;;;;;3.00;0.88;;;5.00;97.50;;;;;;5044076;28;20063;-68
2024/01/31 00:46:27;;;;;;;0.55;0.40;;;5.00;97.60;;;;;;5036897;28;20044;-67
2024/01/31 00:48:53;;;;;;;1.25;0.47;;;5.00;97.70;;;;;;5040571;28;20140;-67
2024/01/31 00:51:18;;;;;;;0.38;0.38;;;5.00;97.80;;;;;;5049713;28;20033;-67
2024/01/31 00:53:44;;;;;;;0.45;0.40;;;5.00;98.00;;;;;;5047984;28;20049;-67
2024/01/31 00:56:09;;;;;;;2.00;0.50;;;5.00;98.30;;;;;;5047587;28;20513;-67
2024/01/31 00:58:35;;;;;;;1.75;0.57;;;4.90;98.50;;;;;;5042372;28;20047;-67
2024/01/31 01:01:00;;;;;;;1.38;0.40;;;4.80;98.60;;;;;;5040923;28;20088;-67
2024/01/31 01:03:26;;;;;;;0.57;0.50;;;4.80;98.80;;;;;;5043155;28;20039;-67
2024/01/31 01:05:51;;;;;;;0.63;0.40;;;4.80;98.70;;;;;;5045202;28;20033;-67
2024/01/31 01:08:17;;;;;;;0.63;0.50;;;4.70;98.70;;;;;;5045178;28;20412;-68
2024/01/31 01:10:42;;;;;;;1.15;0.85;;;4.70;98.70;;;;;;5044438;28;20055;-68
2024/01/31 01:13:08;;;;;;;0.60;0.40;;;4.70;98.70;;;;;;5044171;28;20029;-67
2024/01/31 01:15:33;;;;;;;0.77;0.50;;;4.70;98.70;;;;;;5046008;28;20398;-68
2024/01/31 01:17:59;;;;;;;0.40;0.40;;;4.70;98.70;;;;;;5054034;28;20170;-68
2024/01/31 01:20:24;;;;;;;0.60;0.60;;;4.70;98.70;;;;;;5044148;28;20415;-67
2024/01/31 01:22:50;;;;;;;0.68;0.60;;;4.60;98.80;;;;;;5047173;28;20033;-67
2024/01/31 01:25:16;;;;;;;0.98;0.63;;;4.70;98.70;;;;;;5046521;28;20025;-67
2024/01/31 01:27:50;;;;;;;2.35;0.65;;;4.70;98.70;;;;;;5048438;28;20063;-68
2024/01/31 01:30:19;;;;;;;1.33;0.95;;;4.70;98.50;;;;;;5045730;28;20036;-67
2024/01/31 01:32:44;;;;;;;0.75;0.40;;;4.60;98.30;;;;;;5034968;28;20342;-67
2024/01/31 01:35:10;;;;;;;0.30;0.30;;;4.60;98.10;;;;;;5048001;28;20028;-67
2024/01/31 01:37:35;;;;;;;0.95;0.52;;;4.70;98.20;;;;;;5051741;28;20312;-67
2024/01/31 01:40:01;;;;;;;0.22;0.22;;;4.60;98.20;;;;;;5048987;28;20036;-67
2024/01/31 01:42:27;;;;;;;0.50;0.50;;;4.60;98.20;;;;;;5045790;28;20055;-67
2024/01/31 01:44:52;;;;;;;3.35;0.60;;;4.60;98.20;;;;;;5054858;28;20041;-67
2024/01/31 01:47:18;;;;;;;0.65;0.43;;;4.60;98.20;;;;;;5043028;28;20041;-68
2024/01/31 01:49:45;;;;;;;0.73;0.22;;;4.60;98.20;;;;;;5047588;28;20115;-67
2024/01/31 01:52:12;;;;;;;1.38;0.50;;;4.60;98.00;;;;;;5047523;28;20073;-68
2024/01/31 01:54:38;;;;;;;0.30;0.30;;;4.60;98.00;;;;;;5060154;28;20456;-67
2024/01/31 01:57:05;;;;;;;0.40;0.40;;;4.60;98.00;;;;;;5027112;28;20594;-67
2024/01/31 01:59:31;;;;;;;0.88;0.60;;;4.60;97.90;;;;;;5047769;28;20080;-67
2024/01/31 02:01:57;;;;;;;0.82;0.50;;;4.60;97.90;;;;;;5045179;28;20033;-67
2024/01/31 02:04:24;;;;;;;0.85;0.40;;;4.60;98.00;;;;;;5044568;28;20040;-67
2024/01/31 02:06:51;;;;;;;1.98;0.60;;;4.50;97.80;;;;;;5047201;28;20080;-66
2024/01/31 02:09:17;;;;;;;3.22;0.60;;;4.40;97.80;;;;;;5050798;28;20362;-68
2024/01/31 02:11:44;;;;;;;0.75;0.40;;;4.40;97.70;;;;;;5047371;28;20044;-67
2024/01/31 02:14:09;;;;;;;0.35;0.35;;;4.40;97.60;;;;;;5046530;28;20017;-67
2024/01/31 02:16:35;;;;;;;0.20;0.20;;;4.30;97.70;;;;;;5043438;28;20499;-68
2024/01/31 02:19:00;;;;;;;2.80;0.70;;;4.30;97.90;;;;;;5026665;28;20098;-67
2024/01/31 02:21:28;;;;;;;0.45;0.45;;;4.30;97.80;;;;;;5046148;28;20451;-68
2024/01/31 02:23:53;;;;;;;1.27;0.52;;;4.30;97.80;;;;;;5045851;28;20443;-68
2024/01/31 02:26:19;;;;;;;0.30;0.30;;;4.30;98.00;;;;;;5046203;28;20203;-67
2024/01/31 02:28:45;;;;;;;0.50;0.40;;;4.30;98.20;;;;;;5044532;28;20085;-67
2024/01/31 02:31:10;;;;;;;1.25;0.70;;;4.30;98.30;;;;;;5046747;28;20059;-67
2024/01/31 02:33:36;;;;;;;1.20;0.60;;;4.30;98.40;;;;;;5052257;28;20047;-67
2024/01/31 02:36:02;;;;;;;1.13;0.40;;;4.30;98.50;;;;;;5050069;28;20032;-67
2024/01/31 02:38:27;;;;;;;0.90;0.45;;;4.30;98.60;;;;;;5048650;28;20101;-67
2024/01/31 02:40:52;;;;;;;2.05;0.55;;;4.30;98.60;;;;;;5026591;28;20174;-67
2024/01/31 02:43:18;;;;;;;0.65;0.40;;;4.20;98.70;;;;;;5046518;28;20099;-68
2024/01/31 02:45:44;;;;;;;0.30;0.30;;;4.30;98.90;;;;;;5046399;28;20024;-68
2024/01/31 02:48:09;;;;;;;0.50;0.40;;;4.20;98.90;;;;;;5044764;28;20058;-67
2024/01/31 02:50:35;;;;;;;0.55;0.22;;;4.20;98.90;;;;;;5043992;28;20036;-67
2024/01/31 02:53:01;;;;;;;0.35;0.35;;;4.20;98.80;;;;;;5047922;28;20032;-67
2024/01/31 02:55:26;;;;;;;1.30;0.70;;;4.20;98.80;;;;;;5046874;28;20339;-67
2024/01/31 02:57:52;;;;;;;0.57;0.30;;;4.10;98.80;;;;;;5040782;28;20441;-67
2024/01/31 03:00:18;;;;;;;0.98;0.50;;;4.10;98.60;;;;;;5042101;28;20162;-67
2024/01/31 03:02:43;;;;;;;0.45;0.45;;;4.10;98.60;;;;;;5044484;28;20048;-69
2024/01/31 03:05:12;;;;;;;0.43;0.43;;;4.10;98.50;;;;;;5040544;28;20033;-67
2024/01/31 03:07:38;;;;;;;1.48;0.70;;;4.10;98.50;;;;;;5047004;28;20036;-67
2024/01/31 03:10:05;;;;;;;3.05;0.80;;;4.20;98.60;;;;;;5048909;28;20025;-67
2024/01/31 03:12:30;;;;;;;0.82;0.47;;;4.20;98.50;;;;;;5046318;28;20140;-67
2024/01/31 03:14:56;;;;;;;0.32;0.32;;;4.10;98.40;;;;;;5045303;28;20116;-67
2024/01/31 03:17:21;;;;;;;1.30;0.60;;;4.20;98.50;;;;;;5042297;28;20052;-68
2024/01/31 03:19:47;;;;;;;1.77;0.57;;;4.10;98.50;;;;;;5044555;28;20033;-67
2024/01/31 03:22:12;;;;;;;2.10;0.90;;;4.20;98.50;;;;;;5049193;28;20029;-68
2024/01/31 03:24:38;;;;;;;1.33;0.50;;;4.10;98.50;;;;;;5043557;28;20120;-67
2024/01/31 03:27:04;;;;;;;1.27;0.47;;;4.10;98.60;;;;;;5046338;28;20036;-67
2024/01/31 03:29:30;;;;;;;3.28;0.80;;;4.20;98.40;;;;;;5049939;28;20037;-67
2024/01/31 03:31:57;;;;;;;2.03;0.63;;;4.10;98.30;;;;;;5048232;28;20032;-67
2024/01/31 03:34:23;;;;;;;1.17;0.80;;;4.10;98.40;;;;;;5044148;28;20076;-67
2024/01/31 03:36:48;;;;;;;0.60;0.50;;;4.10;98.40;;;;;;5045813;28;20439;-67
2024/01/31 03:39:14;;;;;;;1.63;1.00;;;4.10;98.50;;;;;;5049925;28;20146;-68
2024/01/31 03:41:46;;;;;;;1.60;0.70;;;4.10;98.50;;;;;;5044190;28;20052;-67
2024/01/31 03:44:15;;;;;;;1.77;0.50;;;4.10;98.60;;;;;;5038686;28;20100;-68
2024/01/31 03:46:41;;;;;;;2.83;0.88;;;4.10;98.70;;;;;;5045298;28;20032;-67
2024/01/31 03:49:06;;;;;;;4.25;1.15;;;4.10;98.70;;;;;;5046085;28;20111;-68
2024/01/31 03:51:32;;;;;;;0.50;0.40;;;4.10;98.70;;;;;;5044436;28;20210;-67
2024/01/31 03:53:57;;;;;;;0.95;0.50;;;4.00;98.70;;;;;;5048788;28;20398;-67
2024/01/31 03:56:23;;;;;;;0.88;0.55;;;4.00;98.60;;;;;;5045977;28;20221;-67
2024/01/31 03:58:49;;;;;;;1.92;0.73;;;4.10;98.50;;;;;;5041851;28;20459;-67
2024/01/31 04:01:16;;;;;;;0.32;0.30;;;4.10;98.10;;;;;;5045207;28;20033;-67
2024/01/31 04:03:43;;;;;;;1.38;0.60;;;4.00;98.00;;;;;;5043654;28;20094;-67
2024/01/31 04:06:08;;;;;;;1.67;1.02;;;4.00;97.90;;;;;;5043044;28;20087;-67
2024/01/31 04:08:34;;;;;;;1.45;0.63;;;4.00;97.80;;;;;;5046597;28;20033;-67
2024/01/31 04:10:59;;;;;;;4.85;0.52;;;4.00;97.70;;;;;;5031960;28;20160;-67
2024/01/31 04:13:25;;;;;;;0.73;0.50;;;4.00;97.70;;;;;;5042041;28;20164;-67
2024/01/31 04:15:50;;;;;;;1.05;0.63;;;4.00;97.50;;;;;;5044376;28;20053;-67
2024/01/31 04:18:15;;;;;;;0.65;0.47;;;4.00;97.50;;;;;;5044091;28;20040;-67
2024/01/31 04:20:41;;;;;;;1.77;1.52;;;4.00;97.60;;;;;;5045105;28;20049;-68
2024/01/31 04:23:07;;;;;;;1.05;0.57;;;4.00;97.10;;;;;;5044848;28;20052;-68
2024/01/31 04:25:32;;;;;;;0.43;0.30;;;4.00;96.60;;;;;;5040550;28;20033;-68
2024/01/31 04:27:58;;;;;;;0.35;0.35;;;4.00;95.90;;;;;;5056909;28;20124;-67
2024/01/31 04:30:24;;;;;;;3.45;0.55;;;4.10;96.10;;;;;;5043346;28;20170;-67
2024/01/31 04:32:49;;;;;;;0.60;0.47;;;4.00;95.80;;;;;;5043148;28;20085;-67
2024/01/31 04:35:15;;;;;;;3.92;0.88;;;4.00;94.80;;;;;;5027249;28;20033;-67
2024/01/31 04:37:40;;;;;;;1.75;0.60;;;4.10;93.20;;;;;;5045397;28;20531;-67
2024/01/31 04:40:07;;;;;;;0.40;0.40;;;4.10;93.40;;;;;;5023279;28;20477;-67
2024/01/31 04:42:32;;;;;;;0.77;0.52;;;4.10;92.00;;;;;;5025251;28;20040;-68
2024/01/31 04:44:58;;;;;;;2.00;0.57;;;4.10;92.30;;;;;;5040758;28;20434;-67
2024/01/31 04:47:25;;;;;;;1.65;0.47;;;4.10;92.10;;;;;;5049083;28;20130;-67
2024/01/31 04:49:51;;;;;;;1.48;0.73;;;4.00;92.30;;;;;;5051098;28;20146;-67
2024/01/31 04:52:17;;;;;;;0.52;0.40;;;4.10;92.10;;;;;;5049444;28;20048;-68
2024/01/31 04:54:42;;;;;;;0.40;0.40;;;4.10;92.00;;;;;;5047339;28;20529;-67
2024/01/31 04:57:08;;;;;;;1.88;0.40;;;4.10;92.40;;;;;;5046836;28;20025;-67
2024/01/31 04:59:40;;;;;;;0.65;0.50;;;4.00;92.30;;;;;;5047629;28;20033;-67
2024/01/31 05:02:07;;;;;;;1.08;0.30;;;4.10;92.10;;;;;;5048709;28;20080;-67
2024/01/31 05:04:33;;;;;;;0.20;0.20;;;4.00;92.60;;;;;;5048155;28;20467;-68
2024/01/31 05:06:58;;;;;;;0.30;0.30;;;4.00;92.30;;;;;;5049098;28;20032;-67
2024/01/31 05:09:24;;;;;;;1.55;0.30;;;4.00;92.00;;;;;;5051737;28;20043;-67
2024/01/31 05:11:49;;;;;;;0.43;0.43;;;4.00;91.40;;;;;;5051005;28;20037;-67
2024/01/31 05:14:15;;;;;;;1.60;0.40;;;4.10;91.10;;;;;;5047118;28;20352;-67
2024/01/31 05:16:42;;;;;;;1.80;0.20;;;4.00;91.10;;;;;;5052802;28;20139;-67
2024/01/31 05:19:14;;;;;;;0.43;0.30;;;4.00;91.30;;;;;;5045683;28;20435;-67
2024/01/31 05:21:49;;;;;;;1.65;0.57;;;4.00;91.00;;;;;;5048138;28;20453;-66
2024/01/31 05:24:16;;;;;;;0.43;0.43;;;4.00;91.50;;;;;;5046753;28;20043;-66
2024/01/31 05:26:46;;;;;;;1.40;0.35;;;4.00;91.50;;;;;;5047697;28;20033;-66
2024/01/31 05:29:12;;;;;;;0.20;0.20;;;4.00;91.60;;;;;;5056075;28;20093;-66
2024/01/31 05:31:37;;;;;;;2.63;0.75;;;3.90;91.80;;;;;;5044592;28;20497;-65
2024/01/31 05:34:03;;;;;;;0.30;0.30;;;3.90;92.00;;;;;;5047756;28;20031;-65
2024/01/31 05:36:29;;;;;;;0.50;0.47;;;3.90;92.50;;;;;;5051325;28;20164;-65
2024/01/31 05:38:55;;;;;;;1.80;0.30;;;3.90;92.70;;;;;;5047169;28;20033;-66
2024/01/31 05:41:20;;;;;;;1.65;0.40;;;3.90;92.60;;;;;;5045950;28;20108;-65
2024/01/31 05:43:46;;;;;;;1.08;0.47;;;3.90;92.90;;;;;;5049860;28;20466;-65
2024/01/31 05:46:18;;;;;;;3.40;0.30;;;3.90;93.20;;;;;;5045606;28;20062;-65
2024/01/31 05:48:46;;;;;;;2.08;0.60;;;3.90;93.80;;;;;;5044981;28;20025;-67
2024/01/31 05:51:11;;;;;;;1.52;0.38;;;3.90;94.10;;;;;;5050957;28;20386;-66
2024/01/31 05:53:37;;;;;;;3.00;0.70;;;3.80;94.50;;;;;;5046144;28;20063;-66
2024/01/31 05:56:03;;;;;;;1.17;0.45;;;3.90;94.70;;;;;;5043825;28;20089;-66
2024/01/31 05:58:29;;;;;;;1.60;0.50;;;3.80;94.90;;;;;;5046966;28;20166;-65
2024/01/31 06:00:55;;;;;;;0.30;0.30;;;3.80;95.00;;;;;;5038071;28;20037;-66
2024/01/31 06:03:22;;;;;;;0.30;0.30;;;3.90;95.00;;;;;;5039491;28;20076;-66
2024/01/31 06:05:48;;;;;;;0.98;0.40;;;3.90;95.10;;;;;;5046337;28;20027;-67
2024/01/31 06:08:14;;;;;;;0.55;0.55;;;3.80;95.00;;;;;;5047729;28;20029;-67
2024/01/31 06:10:39;;;;;;;0.47;0.35;;;3.90;95.00;;;;;;5046120;28;20423;-65
2024/01/31 06:13:04;;;;;;;0.38;0.22;;;3.80;95.00;;;;;;5045799;28;20037;-66
2024/01/31 06:15:30;;;;;;;0.45;0.30;;;3.80;95.10;;;;;;5044667;28;20184;-66
2024/01/31 06:17:56;;;;;;;0.30;0.30;;;3.80;95.10;;;;;;5022219;28;20025;-65
2024/01/31 06:20:21;;;;;;;1.85;0.35;;;3.90;95.10;;;;;;5043930;28;20041;-65
2024/01/31 06:22:47;;;;;;;0.63;0.57;;;3.90;95.10;;;;;;5044948;28;20107;-65
2024/01/31 06:25:12;;;;;;;0.80;0.32;;;3.90;95.10;;;;;;5043699;28;20040;-65
2024/01/31 06:27:37;;;;;;;0.95;0.47;;;3.90;95.10;;;;;;5047897;28;20131;-65
2024/01/31 06:30:04;;;;;;;2.47;0.73;;;3.90;94.90;;;;;;5035281;28;20096;-65
2024/01/31 06:32:32;;;;;;;0.52;0.43;;;3.90;94.90;;;;;;5045613;28;20041;-65
2024/01/31 06:34:58;;;;;;;1.70;0.40;;;3.90;94.30;;;;;;5047904;28;20032;-64
2024/01/31 06:37:24;;;;;;;0.30;0.30;;;3.90;94.20;;;;;;5047019;28;20068;-65
2024/01/31 06:39:50;;;;;;;0.63;0.43;;;4.00;93.80;;;;;;5047614;28;20082;-65
2024/01/31 06:42:15;;;;;;;1.65;0.40;;;4.00;93.80;;;;;;5047404;28;20032;-65
2024/01/31 06:44:41;;;;;;;4.47;0.43;;;4.00;93.80;;;;;;5045991;28;20146;-67
2024/01/31 06:47:06;;;;;;;1.55;0.70;;;4.00;93.30;;;;;;5047630;28;20064;-66
2024/01/31 06:49:32;;;;;;;0.60;0.40;;;4.00;93.10;;;;;;5039730;28;20171;-65
2024/01/31 06:51:57;;;;;;;1.10;0.30;;;4.00;93.00;;;;;;5056875;28;20553;-64
2024/01/31 06:54:23;;;;;;;2.33;0.43;;;3.90;92.90;;;;;;5048321;28;20040;-65
2024/01/31 06:56:48;;;;;;;2.83;0.38;;;4.00;93.00;;;;;;5050960;28;20136;-64
2024/01/31 06:59:14;;;;;;;1.98;0.40;;;4.00;92.40;;;;;;5050591;28;20362;-66
2024/01/31 07:01:39;;;;;;;1.25;0.82;;;4.00;91.80;;;;;;5046897;28;20049;-65
2024/01/31 07:04:05;;;;;;;5.68;0.60;;;4.00;91.90;;;;;;5046504;28;20057;-65
2024/01/31 07:06:30;;;;;;;1.77;0.65;;;4.00;92.00;;;;;;5047913;28;20466;-65
2024/01/31 07:08:56;;;;;;;0.60;0.60;;;4.10;92.00;;;;;;5045736;28;20036;-64
2024/01/31 07:11:21;;;;;;;0.95;0.45;;;4.00;92.30;;;;;;5047996;28;20058;-64
2024/01/31 07:13:46;;;;;;;4.22;0.40;;;4.00;92.20;;;;;;5048030;28;20037;-65
2024/01/31 07:16:12;;;;;;;0.40;0.40;;;4.00;92.10;;;;;;5052055;28;20045;-66
2024/01/31 07:18:41;;;;;;;1.35;0.20;;;4.00;91.60;;;;;;5044989;28;20121;-65
2024/01/31 07:21:08;;;;;;;1.35;0.50;;;4.10;91.40;;;;;;5049215;28;20029;-64
2024/01/31 07:23:34;;;;;;;0.60;0.40;;;4.10;91.20;;;;;;5044914;28;20107;-65
2024/01/31 07:26:00;;;;;;;0.80;0.40;;;4.10;91.50;;;;;;5055982;28;20029;-64
2024/01/31 07:28:25;;;;;;;3.45;0.60;;;4.00;91.60;;;;;;5046295;28;20102;-64
2024/01/31 07:30:52;;;;;;;1.17;0.63;;;4.00;91.70;;;;;;5046431;28;20357;-65
2024/01/31 07:33:18;;;;;;;0.80;0.45;;;4.10;90.20;;;;;;5048517;28;20559;-66
2024/01/31 07:35:44;;;;;;;1.58;0.65;;;4.10;90.10;;;;;;5050612;28;20093;-65
2024/01/31 07:38:10;;;;;;;3.50;0.90;;;4.10;90.10;;;;;;5045683;28;20387;-64
2024/01/31 07:40:35;;;;;;;0.50;0.30;;;4.10;90.40;;;;;;5049079;28;20067;-65
2024/01/31 07:43:01;;;;;;;1.67;0.40;;;4.10;90.70;;;;;;5050600;28;20120;-65
2024/01/31 07:45:27;;;;;;;1.17;0.40;;;4.10;90.50;;;;;;5043069;28;20044;-65
2024/01/31 07:47:52;;;;;;;0.85;0.30;;;4.10;90.80;;;;;;5044228;28;20029;-64
2024/01/31 07:50:18;;;;;;;0.50;0.32;;;4.10;91.10;;;;;;5048035;28;20036;-65
2024/01/31 07:52:43;;;;;;;1.45;0.52;;;4.10;91.00;;;;;;5046908;28;20094;-65
2024/01/31 07:55:10;;;;;;;3.05;0.80;;;4.20;91.20;;;;;;5045704;28;20072;-64
2024/01/31 07:57:36;;;;;;;1.60;0.40;;;4.20;91.10;;;;;;5054085;28;20104;-64
2024/01/31 08:00:03;;;;;;;0.50;0.35;;;4.10;91.00;;;;;;5049060;28;20444;-64
2024/01/31 08:02:28;;;;;;;2.35;0.60;;;4.20;90.50;;;;;;5043190;28;20037;-65
2024/01/31 08:04:54;;;;;;;3.03;0.63;;;4.20;89.60;;;;;;5043134;28;20225;-65
2024/01/31 08:07:20;;;;;;;2.20;0.77;;;4.30;89.80;;;;;;5047837;28;20069;-64
2024/01/31 08:09:46;;;;;;;3.00;0.40;;;4.30;89.80;;;;;;5051499;28;20047;-68
2024/01/31 08:12:11;;;;;;;0.22;0.22;;;4.30;89.50;;;;;;5020670;28;20033;-65
2024/01/31 08:14:37;;;;;;;3.40;0.65;;;4.30;89.30;;;;;;5040552;28;20494;-64
2024/01/31 08:17:02;;;;;;;0.43;0.40;;;4.40;89.00;;;;;;5044444;28;20064;-66
2024/01/31 08:19:28;;;;;;;0.45;0.40;;;4.40;89.10;;;;;;5043594;28;20037;-65
2024/01/31 08:21:53;;;;;;;0.20;0.20;;;4.40;88.30;;;;;;5041844;28;20088;-65
2024/01/31 08:24:20;;;;;;;0.60;0.35;;;4.50;88.70;;;;;;5043045;28;20451;-64
2024/01/31 08:26:45;;;;;;;1.67;0.32;;;4.50;88.50;;;;;;5044006;28;20528;-65
2024/01/31 08:29:11;;;;;;;0.40;0.30;;;4.50;88.20;;;;;;5044482;28;20077;-65
2024/01/31 08:31:36;;;;;;;0.63;0.40;;;4.50;88.30;;;;;;5043558;28;20151;-64
2024/01/31 08:34:02;;;;;;;0.65;0.32;;;4.60;88.10;;;;;;5050981;28;20047;-65
2024/01/31 08:36:27;;;;;;;1.45;0.45;;;4.60;87.40;;;;;;5064002;28;20033;-64
2024/01/31 08:38:53;;;;;;;0.30;0.30;;;4.60;87.30;;;;;;5053034;28;20560;-64
2024/01/31 08:41:19;;;;;;;0.93;0.40;;;4.60;87.00;;;;;;5052888;28;20129;-65
2024/01/31 08:43:45;;;;;;;0.63;0.35;;;4.60;87.10;;;;;;5052367;28;20043;-65
2024/01/31 08:46:11;;;;;;;0.25;0.25;;;4.60;87.00;;;;;;5047939;28;20455;-65
2024/01/31 08:48:38;;;;;;;0.22;0.22;;;4.60;86.50;;;;;;5047278;28;20029;-64
2024/01/31 08:51:06;;;;;;;0.55;0.43;;;4.60;86.30;;;;;;5031838;28;20037;-64
2024/01/31 08:53:31;;;;;;;0.90;0.40;;;4.70;86.60;;;;;;5048351;28;20465;-65
2024/01/31 08:55:57;;;;;;;0.30;0.30;;;4.60;86.70;;;;;;5045386;28;20048;-65
2024/01/31 08:58:23;;;;;;;0.57;0.38;;;4.70;86.10;;;;;;5045499;28;20095;-65
2024/01/31 09:00:48;;;;;;;0.70;0.28;;;4.70;85.80;;;;;;5049012;28;20248;-64
2024/01/31 09:03:14;;;;;;;0.30;0.30;;;4.70;85.90;;;;;;5031410;28;20029;-65
2024/01/31 09:05:39;;;;;;;0.20;0.20;;;4.70;86.40;;;;;;5050214;28;20027;-64
2024/01/31 09:08:05;;;;;;;0.40;0.40;;;4.70;86.20;;;;;;5052491;28;20055;-65
2024/01/31 09:10:30;;;;;;;0.65;0.45;;;4.70;86.80;;;;;;5053084;28;20058;-67
2024/01/31 09:12:56;;;;;;;0.47;0.40;;;4.70;85.60;;;;;;5032940;28;20040;-65
2024/01/31 09:15:21;;;;;;;0.40;0.40;;;4.80;85.40;;;;;;5049071;28;20202;-64
2024/01/31 09:17:47;;;;;;;0.30;0.20;;;4.70;84.20;;;;;;5059079;28;20029;-64
2024/01/31 09:20:13;;;;;;;1.10;0.50;;;4.80;84.80;;;;;;5055826;28;20073;-65
2024/01/31 09:22:40;;;;;;;0.73;0.30;;;4.80;84.10;;;;;;5049135;28;20131;-64
2024/01/31 09:25:06;;;;;;;2.85;0.47;;;4.80;84.00;;;;;;5047142;28;20211;-65
2024/01/31 09:27:31;;;;;;;1.27;0.52;;;4.80;84.40;;;;;;5061242;28;20505;-64
2024/01/31 09:29:57;;;;;;;0.95;0.52;;;4.90;84.50;;;;;;5050363;28;20239;-65
2024/01/31 09:32:22;;;;;;;0.30;0.30;;;4.80;84.60;;;;;;5055962;28;20041;-64
2024/01/31 09:34:48;;;;;;;2.17;1.20;;;4.80;84.10;;;;;;5049324;28;20454;-65
2024/01/31 09:37:13;;;;;;;2.47;0.55;;;4.90;84.30;;;;;;5056916;28;20145;-65
2024/01/31 09:39:39;;;;;;;3.65;0.63;;;4.90;84.00;;;;;;5049003;28;20033;-65
2024/01/31 09:42:05;;;;;;;1.77;0.30;;;4.90;83.60;;;;;;5052425;28;20037;-65
2024/01/31 09:44:31;;;;;;;3.60;1.17;;;4.90;84.70;;;;;;5057835;28;20036;-66
2024/01/31 09:46:58;;;;;;;0.28;0.28;;;4.90;83.40;;;;;;5049773;28;20033;-65
2024/01/31 09:49:24;;;;;;;1.83;0.45;;;4.90;83.30;;;;;;5048550;28;20056;-64
2024/01/31 09:51:58;;;;;;;0.90;0.28;;;5.00;82.30;;;;;;5054273;28;20060;-64
2024/01/31 09:54:24;;;;;;;0.75;0.50;;;5.00;82.00;;;;;;5056598;28;20048;-65
2024/01/31 09:56:50;;;;;;;0.65;0.30;;;5.00;83.10;;;;;;5049189;28;20036;-64
2024/01/31 09:59:16;;;;;;;0.75;0.40;;;5.00;83.10;;;;;;5052513;28;20029;-65
2024/01/31 10:01:42;;;;;;;0.40;0.40;;;5.00;83.30;;;;;;5049234;28;20500;-66
2024/01/31 10:04:08;;;;;;;2.55;0.70;;;5.10;83.60;;;;;;5047268;28;20110;-66
2024/01/31 10:06:33;;;;;;;0.45;0.40;;;5.10;83.00;;;;;;5039703;28;20130;-67
2024/01/31 10:08:59;;;;;;;0.55;0.50;;;5.10;82.90;;;;;;5051923;28;20021;-65
2024/01/31 10:11:28;;;;;;;0.50;0.38;;;5.10;83.00;;;;;;5042672;28;20037;-66
2024/01/31 10:13:55;;;;;;;1.25;0.90;;;5.10;83.10;;;;;;5042795;28;20100;-64
2024/01/31 10:16:21;;;;;;;1.00;0.70;;;5.10;83.10;;;;;;5043808;28;20135;-65
2024/01/31 10:18:46;;;;;;;5.20;1.42;;;5.20;83.60;;;;;;5037662;28;20495;-66
2024/01/31 10:21:12;;;;;;;6.97;1.48;;;5.20;82.90;;;;;;5048019;28;20420;-67
2024/01/31 10:23:37;;;;;;;1.65;1.00;;;5.20;82.20;;;;;;5044592;28;20040;-70
2024/01/31 10:26:03;;;;;;;0.73;0.70;;;5.10;81.50;;;;;;5051658;28;20492;-68
2024/01/31 10:28:28;;;;;;;1.02;0.93;;;5.10;81.50;;;;;;5048658;28;20033;-68
2024/01/31 10:30:55;;;;;;;0.40;0.40;;;5.10;81.80;;;;;;5047206;28;20037;-66
2024/01/31 10:33:22;;;;;;;1.45;0.73;;;5.10;82.40;;;;;;5052413;28;20048;-68
2024/01/31 10:35:48;;;;;;;2.75;0.90;;;5.10;82.40;;;;;;5058500;28;20104;-66
2024/01/31 10:38:14;;;;;;;0.52;0.50;;;5.10;82.50;;;;;;5059804;28;20069;-67
2024/01/31 10:40:41;;;;;;;2.80;0.47;;;5.10;82.10;;;;;;5044115;28;20040;-66
2024/01/31 10:43:10;;;;;;;0.65;0.60;;;5.10;81.90;;;;;;5054164;28;20503;-66
2024/01/31 10:45:35;;;;;;;1.15;0.60;;;5.10;83.60;;;;;;5053779;28;20029;-68
2024/01/31 10:48:02;;;;;;;4.57;0.93;;;5.20;83.60;;;;;;5039197;28;20077;-66
2024/01/31 10:50:29;;;;;;;0.70;0.35;;;5.10;81.70;;;;;;5039586;28;20024;-67
2024/01/31 10:52:56;;;;;;;0.35;0.35;;;5.10;82.20;;;;;;5048247;28;20033;-68
2024/01/31 10:55:23;;;;;;;0.73;0.50;;;5.20;82.00;;;;;;5045754;28;20036;-66
2024/01/31 10:57:48;;;;;;;0.60;0.35;;;5.10;81.80;;;;;;5044413;28;20064;-67
2024/01/31 11:00:25;;;;;;;0.22;0.22;;;5.00;81.90;;;;;;5046113;28;20036;-67
2024/01/31 11:02:51;;;;;;;0.35;0.35;;;5.00;82.70;;;;;;5045177;28;20029;-66
2024/01/31 11:05:17;;;;;;;1.60;0.47;;;5.00;82.90;;;;;;5050479;28;20025;-67
2024/01/31 11:07:46;;;;;;;0.20;0.20;;;4.90;82.90;;;;;;5045796;28;20041;-66
2024/01/31 11:10:20;;;;;;;1.33;0.50;;;4.90;82.40;;;;;;5046863;28;20184;-67
2024/01/31 11:13:04;;;;;;;1.38;0.70;;;4.90;82.20;;;;;;5039745;28;20040;-65
2024/01/31 11:15:31;;;;;;;0.75;0.38;;;4.90;82.40;;;;;;5046862;28;20358;-66
2024/01/31 11:18:09;;;;;;;1.00;0.40;;;4.90;82.80;;;;;;5045665;28;20035;-66
2024/01/31 11:20:52;;;;;;;2.80;0.40;;;5.00;83.80;;;;;;5048161;28;20071;-65
2024/01/31 11:23:20;;;;;;;0.50;0.32;;;4.90;82.80;;;;;;5043710;28;20043;-65
2024/01/31 11:25:46;;;;;;;0.65;0.35;;;4.80;82.90;;;;;;5045213;28;20310;-65
2024/01/31 11:28:12;;;;;;;0.88;0.43;;;4.80;82.40;;;;;;5052936;28;20699;-65
2024/01/31 11:30:39;;;;;;;2.42;0.50;;;4.80;82.60;;;;;;5048715;28;20033;-65
2024/01/31 11:33:05;;;;;;;1.17;0.52;;;4.80;83.00;;;;;;5047577;28;20120;-65
2024/01/31 11:35:31;;;;;;;0.65;0.40;;;4.70;83.10;;;;;;5040123;28;20135;-64
2024/01/31 11:37:57;;;;;;;1.65;0.40;;;4.70;82.80;;;;;;5045599;28;20486;-66
2024/01/31 11:40:23;;;;;;;0.20;0.20;;;4.80;82.80;;;;;;5045966;28;20033;-65
2024/01/31 11:42:56;;;;;;;0.75;0.50;;;4.80;83.20;;;;;;5046150;28;20043;-65
2024/01/31 11:45:23;;;;;;;1.05;0.52;;;4.80;83.70;;;;;;5028533;28;20022;-66
2024/01/31 11:47:50;;;;;;;0.80;0.30;;;4.70;83.50;;;;;;5046054;28;20059;-65
2024/01/31 11:50:15;;;;;;;0.40;0.30;;;4.80;83.40;;;;;;5045611;28;20037;-65
2024/01/31 11:52:42;;;;;;;0.50;0.50;;;4.80;83.80;;;;;;5045158;28;20043;-66
2024/01/31 11:55:11;;;;;;;0.85;0.45;;;4.70;83.70;;;;;;5044956;28;20096;-65
2024/01/31 11:57:37;;;;;;;0.55;0.40;;;4.70;83.10;;;;;;5046584;28;20025;-65
2024/01/31 12:00:06;;;;;;;0.65;0.57;;;4.80;83.00;;;;;;5029762;28;20033;-65
2024/01/31 12:02:36;;;;;;;0.90;0.47;;;4.90;83.40;;;;;;5044666;28;20029;-65
2024/01/31 12:05:02;;;;;;;1.88;0.55;;;4.90;83.50;;;;;;5045509;28;20075;-65
2024/01/31 12:07:28;;;;;;;0.38;0.38;;;4.90;83.40;;;;;;5045616;28;20036;-64
2024/01/31 12:09:54;;;;;;;1.13;0.57;;;4.90;83.70;;;;;;5051891;28;20075;-67
2024/01/31 12:12:19;;;;;;;0.70;0.30;;;4.90;84.00;;;;;;5053202;28;20383;-64
2024/01/31 12:14:45;;;;;;;0.25;0.22;;;4.90;84.00;;;;;;5039101;28;20041;-65
2024/01/31 12:17:22;;;;;;;1.75;0.40;;;4.90;83.70;;;;;;5053973;28;20119;-67
2024/01/31 12:19:48;;;;;;;0.30;0.30;;;4.80;83.80;;;;;;5041574;28;20021;-66
2024/01/31 12:22:15;;;;;;;0.60;0.40;;;4.80;83.50;;;;;;5050048;28;20099;-66
2024/01/31 12:24:40;;;;;;;2.28;0.52;;;4.80;83.50;;;;;;5043946;28;20028;-66
2024/01/31 12:27:06;;;;;;;0.75;0.60;;;4.80;83.70;;;;;;5048938;28;20037;-66
2024/01/31 12:29:32;;;;;;;0.60;0.50;;;4.80;84.00;;;;;;5046143;28;20473;-65
2024/01/31 12:31:57;;;;;;;0.68;0.45;;;4.80;84.40;;;;;;5046737;28;20037;-65
2024/01/31 12:34:23;;;;;;;1.05;0.70;;;4.80;84.40;;;;;;5044070;28;20049;-66
2024/01/31 12:36:49;;;;;;;0.47;0.47;;;4.80;84.30;;;;;;5042864;28;20451;-66
2024/01/31 12:39:19;;;;;;;0.95;0.68;;;4.80;84.30;;;;;;5049448;28;20093;-65
2024/01/31 12:41:47;;;;;;;0.80;0.50;;;4.80;84.40;;;;;;5047117;28;20048;-66
2024/01/31 12:44:12;;;;;;;0.50;0.50;;;4.90;84.70;;;;;;5050910;28;20033;-65
2024/01/31 12:46:42;;;;;;;2.85;0.98;;;4.90;85.10;;;;;;5044052;28;20052;-66
2024/01/31 12:49:08;;;;;;;1.02;0.80;;;4.80;84.80;;;;;;5045517;28;20148;-66
2024/01/31 12:51:33;;;;;;;1.38;0.90;;;4.80;84.80;;;;;;5045865;28;20037;-65